createdAt,value
2019-05-06T00:02:01.972Z,4.57
2019-05-06T00:04:34.074Z,2.63
2019-05-06T00:07:05.674Z,5.07
2019-05-06T00:09:37.063Z,5.07
2019-05-06T00:12:08.933Z,6.90
2019-05-06T00:14:40.302Z,4.40
2019-05-06T00:17:11.745Z,5.30
2019-05-06T00:19:44.764Z,5.57
2019-05-06T00:22:17.216Z,6.17
2019-05-06T00:24:57.935Z,4.23
2019-05-06T00:27:36.037Z,5.63
2019-05-06T00:30:09.109Z,3.33
2019-05-06T00:32:40.504Z,5.47
2019-05-06T00:35:14.159Z,5.37
2019-05-06T00:37:44.981Z,5.93
2019-05-06T00:40:30.704Z,4.60
2019-05-06T00:43:06.639Z,7.47
2019-05-06T00:45:38.039Z,8.87
2019-05-06T00:48:09.392Z,5.40
2019-05-06T00:50:40.767Z,5.07
2019-05-06T00:53:17.479Z,6.63
2019-05-06T00:55:48.831Z,7.83
2019-05-06T00:58:20.337Z,5.70
2019-05-06T01:00:53.816Z,6.53
2019-05-06T01:03:25.820Z,6.37
2019-05-06T01:05:57.307Z,6.30
2019-05-06T01:08:28.707Z,5.47
2019-05-06T01:11:00.629Z,5.03
2019-05-06T01:13:55.740Z,3.07
2019-05-06T01:16:27.323Z,3.97
2019-05-06T01:18:58.895Z,3.00
2019-05-06T01:21:30.280Z,3.30
2019-05-06T01:24:03.785Z,3.40
2019-05-06T01:26:34.848Z,3.67
2019-05-06T01:29:06.267Z,3.17
2019-05-06T01:31:42.882Z,4.10
2019-05-06T01:34:11.161Z,6.30
2019-05-06T01:36:43.702Z,3.87
2019-05-06T01:39:43.636Z,3.60
2019-05-06T01:42:30.286Z,4.00
2019-05-06T01:45:01.658Z,3.37
2019-05-06T01:47:34.614Z,4.27
2019-05-06T01:50:07.507Z,4.40
2019-05-06T01:52:38.943Z,4.53
2019-05-06T01:55:10.820Z,3.87
2019-05-06T01:57:44.341Z,6.17
2019-05-06T02:00:16.817Z,3.37
2019-05-06T02:02:48.301Z,3.87
2019-05-06T02:05:19.684Z,6.40
2019-05-06T02:07:51.059Z,3.87
2019-05-06T02:10:23.874Z,3.73
2019-05-06T02:12:55.433Z,4.00
2019-05-06T02:15:26.861Z,3.23
2019-05-06T02:17:58.263Z,3.13
2019-05-06T02:20:29.625Z,3.90
2019-05-06T02:23:14.477Z,3.27
2019-05-06T02:25:54.164Z,3.83
2019-05-06T02:28:25.461Z,3.03
2019-05-06T02:31:17.123Z,4.60
2019-05-06T02:34:10.370Z,2.90
2019-05-06T02:36:46.999Z,4.87
2019-05-06T02:39:18.392Z,6.33
2019-05-06T02:41:49.818Z,3.47
2019-05-06T02:44:23.801Z,3.30
2019-05-06T02:47:03.035Z,4.03
2019-05-06T02:49:56.105Z,6.30
2019-05-06T02:52:27.579Z,3.43
2019-05-06T02:54:58.908Z,4.67
2019-05-06T02:57:33.259Z,4.67
2019-05-06T03:00:04.995Z,2.60
2019-05-06T03:02:43.248Z,3.43
2019-05-06T03:05:13.082Z,3.87
2019-05-06T03:07:43.868Z,4.80
2019-05-06T03:10:17.692Z,3.90
2019-05-06T03:12:49.103Z,11.30
2019-05-06T03:15:23.608Z,16.40
2019-05-06T03:17:55.323Z,9.63
2019-05-06T03:21:00.033Z,6.63
2019-05-06T03:23:34.904Z,6.07
2019-05-06T03:26:07.074Z,3.83
2019-05-06T03:28:38.609Z,5.00
2019-05-06T03:31:10.050Z,5.70
2019-05-06T03:33:58.473Z,5.80
2019-05-06T03:36:24.054Z,6.97
2019-05-06T03:38:47.671Z,5.57
2019-05-06T03:41:23.383Z,5.10
2019-05-06T03:43:54.415Z,5.33
2019-05-06T03:46:33.961Z,5.13
2019-05-06T03:49:07.401Z,7.17
2019-05-06T03:51:38.753Z,7.93
2019-05-06T03:54:12.751Z,8.40
2019-05-06T03:56:45.145Z,7.53
2019-05-06T03:59:17.879Z,4.87
2019-05-06T04:01:49.348Z,3.37
2019-05-06T04:04:23.252Z,4.10
2019-05-06T04:06:54.469Z,4.27
2019-05-06T04:09:26.059Z,4.07
2019-05-06T04:11:59.381Z,4.00
2019-05-06T04:14:34.660Z,4.33
2019-05-06T04:17:15.041Z,8.37
2019-05-06T04:19:53.401Z,6.77
2019-05-06T04:22:44.079Z,4.37
2019-05-06T04:25:44.514Z,8.70
2019-05-06T04:28:23.834Z,5.23
2019-05-06T04:30:55.113Z,10.30
2019-05-06T04:33:27.009Z,5.10
2019-05-06T04:35:58.373Z,3.50
2019-05-06T04:38:29.863Z,4.33
2019-05-06T04:41:02.909Z,4.83
2019-05-06T04:43:34.967Z,3.03
2019-05-06T04:46:09.511Z,5.33
2019-05-06T04:48:43.393Z,3.47
2019-05-06T04:51:13.920Z,4.03
2019-05-06T04:53:45.343Z,5.17
2019-05-06T04:56:16.879Z,4.47
2019-05-06T04:58:48.256Z,3.93
2019-05-06T05:01:22.916Z,4.63
2019-05-06T05:03:53.905Z,3.70
2019-05-06T05:06:27.059Z,4.10
2019-05-06T05:08:58.954Z,5.20
2019-05-06T05:11:36.446Z,5.30
2019-05-06T05:14:25.373Z,3.93
2019-05-06T05:17:12.877Z,6.13
2019-05-06T05:19:45.299Z,3.77
2019-05-06T05:22:17.395Z,4.93
2019-05-06T05:24:52.086Z,3.50
2019-05-06T05:27:23.783Z,4.33
2019-05-06T05:29:55.215Z,6.67
2019-05-06T05:32:27.042Z,5.57
2019-05-06T05:34:58.651Z,4.90
2019-05-06T05:37:30.034Z,5.93
2019-05-06T05:40:03.005Z,3.83
2019-05-06T05:42:48.150Z,5.67
2019-05-06T05:45:19.581Z,5.33
2019-05-06T05:47:53.610Z,5.97
2019-05-06T05:50:29.519Z,4.03
2019-05-06T05:53:02.463Z,6.07
2019-05-06T05:55:34.742Z,5.33
2019-05-06T05:58:06.548Z,5.20
2019-05-06T06:00:38.013Z,4.53
2019-05-06T06:03:09.371Z,3.83
2019-05-06T06:05:42.638Z,4.00
2019-05-06T06:08:13.982Z,5.70
2019-05-06T06:10:53.517Z,5.37
2019-05-06T06:13:24.839Z,4.70
2019-05-06T06:16:24.203Z,4.33
2019-05-06T06:19:03.765Z,5.70
2019-05-06T06:21:52.988Z,5.17
2019-05-06T06:24:32.210Z,5.10
2019-05-06T06:27:03.775Z,5.63
2019-05-06T06:29:35.337Z,3.70
2019-05-06T06:32:18.450Z,5.40
2019-05-06T06:35:07.547Z,5.33
2019-05-06T06:37:43.654Z,5.87
2019-05-06T06:40:17.172Z,3.33
2019-05-06T06:42:52.600Z,5.77
2019-05-06T06:45:23.973Z,6.60
2019-05-06T06:47:55.319Z,7.93
2019-05-06T06:50:26.635Z,4.20
2019-05-06T06:52:58.055Z,5.03
2019-05-06T06:55:29.414Z,5.50
2019-05-06T06:58:35.170Z,5.77
2019-05-06T07:01:33.170Z,7.80
2019-05-06T07:04:11.167Z,5.10
2019-05-06T07:06:44.896Z,5.87
2019-05-06T07:09:16.252Z,7.80
2019-05-06T07:11:47.618Z,3.73
2019-05-06T07:14:18.951Z,4.07
2019-05-06T07:16:50.301Z,7.20
2019-05-06T07:19:28.630Z,5.03
2019-05-06T07:21:59.990Z,5.17
2019-05-06T07:24:32.426Z,3.67
2019-05-06T07:27:15.113Z,5.83
2019-05-06T07:29:48.428Z,4.00
2019-05-06T07:32:19.762Z,4.00
2019-05-06T07:34:53.111Z,6.33
2019-05-06T07:37:24.376Z,5.87
2019-05-06T07:39:55.743Z,6.60
2019-05-06T07:42:33.420Z,6.20
2019-05-06T07:45:22.872Z,4.57
2019-05-06T07:48:03.569Z,5.07
2019-05-06T07:50:36.258Z,5.47
2019-05-06T07:53:08.047Z,6.23
2019-05-06T07:55:42.207Z,6.43
2019-05-06T07:58:13.911Z,4.37
2019-05-06T08:00:45.311Z,5.83
2019-05-06T08:03:16.686Z,7.43
2019-05-06T08:05:57.984Z,9.37
2019-05-06T08:08:23.071Z,10.10
2019-05-06T08:10:54.199Z,9.17
2019-05-06T08:13:25.526Z,7.97
2019-05-06T08:15:56.914Z,6.17
2019-05-06T08:18:28.265Z,7.80
2019-05-06T08:21:02.507Z,11.10
2019-05-06T08:23:39.749Z,9.67
2019-05-06T08:26:15.610Z,9.50
2019-05-06T08:28:44.643Z,13.13
2019-05-06T08:31:17.861Z,9.73
2019-05-06T08:33:49.253Z,7.57
2019-05-06T08:36:53.346Z,11.67
2019-05-06T08:39:24.800Z,10.37
2019-05-06T08:41:56.185Z,8.73
2019-05-06T08:44:27.543Z,9.70
2019-05-06T08:46:58.892Z,8.93
2019-05-06T08:49:33.181Z,6.97
2019-05-06T08:52:08.860Z,7.67
2019-05-06T08:54:44.436Z,8.17
2019-05-06T08:57:15.763Z,7.70
2019-05-06T08:59:47.134Z,11.60
2019-05-06T09:02:20.266Z,10.40
2019-05-06T09:04:52.249Z,10.90
2019-05-06T09:07:23.950Z,9.70
2019-05-06T09:09:55.443Z,6.63
2019-05-06T09:12:26.846Z,7.07
2019-05-06T09:14:58.225Z,8.23
2019-05-06T09:17:29.656Z,7.83
2019-05-06T09:20:02.725Z,10.93
2019-05-06T09:22:35.227Z,9.77
2019-05-06T09:25:06.702Z,9.70
2019-05-06T09:28:03.837Z,7.53
2019-05-06T09:30:46.502Z,8.60
2019-05-06T09:33:22.534Z,8.93
2019-05-06T09:35:55.077Z,8.10
2019-05-06T09:38:26.447Z,7.63
2019-05-06T09:40:57.821Z,8.33
2019-05-06T09:43:29.141Z,9.97
2019-05-06T09:46:02.302Z,12.27
2019-05-06T09:48:55.595Z,10.43
2019-05-06T09:51:26.956Z,9.83
2019-05-06T09:54:26.142Z,9.47
2019-05-06T09:57:07.209Z,11.47
2019-05-06T09:59:38.545Z,7.63
2019-05-06T10:02:12.228Z,7.93
2019-05-06T10:04:43.005Z,8.23
2019-05-06T10:07:14.479Z,9.83
2019-05-06T10:09:46.914Z,11.20
2019-05-06T10:12:18.389Z,11.97
2019-05-06T10:14:49.997Z,9.07
2019-05-06T10:17:21.440Z,9.27
2019-05-06T10:19:52.824Z,7.70
2019-05-06T10:22:24.277Z,8.23
2019-05-06T10:24:55.700Z,10.70
2019-05-06T10:27:27.094Z,9.27
2019-05-06T10:30:12.363Z,7.60
2019-05-06T10:32:46.829Z,8.80
2019-05-06T10:35:19.012Z,8.00
2019-05-06T10:38:25.472Z,9.03
2019-05-06T10:41:06.812Z,9.70
2019-05-06T10:44:49.631Z,4.83
2019-05-06T10:47:22.621Z,6.27
2019-05-06T10:49:54.102Z,8.87
2019-05-06T10:52:33.530Z,5.87
2019-05-06T10:55:05.138Z,7.67
2019-05-06T10:57:42.950Z,6.07
2019-05-06T11:00:14.161Z,6.20
2019-05-06T11:03:04.400Z,6.47
2019-05-06T11:05:35.750Z,4.07
2019-05-06T11:08:07.124Z,9.53
2019-05-06T11:10:41.492Z,5.00
2019-05-06T11:13:12.783Z,5.20
2019-05-06T11:15:44.793Z,4.43
2019-05-06T11:18:16.165Z,7.70
2019-05-06T11:20:47.678Z,7.20
2019-05-06T11:23:19.016Z,4.80
2019-05-06T11:25:52.496Z,8.93
2019-05-06T11:28:42.649Z,5.30
2019-05-06T11:31:33.202Z,4.93
2019-05-06T11:34:14.594Z,5.60
2019-05-06T11:36:54.036Z,5.40
2019-05-06T11:39:25.381Z,4.63
2019-05-06T11:42:22.589Z,4.80
2019-05-06T11:44:29.705Z,7.67
2019-05-06T11:47:03.374Z,8.30
2019-05-06T11:49:34.127Z,6.63
2019-05-06T11:52:05.630Z,6.87
2019-05-06T11:54:36.980Z,5.13
2019-05-06T11:57:12.245Z,5.90
2019-05-06T11:59:44.156Z,6.27
2019-05-06T12:02:18.676Z,8.17
2019-05-06T12:05:09.265Z,7.80
2019-05-06T12:07:43.270Z,5.70
2019-05-06T12:10:14.192Z,4.83
2019-05-06T12:12:45.642Z,5.53
2019-05-06T12:15:17.618Z,5.10
2019-05-06T12:17:49.184Z,8.03
2019-05-06T12:20:22.232Z,8.23
2019-05-06T12:22:53.703Z,5.23
2019-05-06T12:25:25.293Z,7.40
2019-05-06T12:27:56.677Z,9.07
2019-05-06T12:30:28.058Z,7.27
2019-05-06T12:33:37.028Z,9.97
2019-05-06T12:36:24.670Z,7.90
2019-05-06T12:39:23.113Z,7.13
2019-05-06T12:42:16.007Z,8.27
2019-05-06T12:45:05.987Z,9.27
2019-05-06T12:47:47.938Z,7.83
2019-05-06T12:50:19.367Z,8.97
2019-05-06T12:52:52.653Z,8.37
2019-05-06T12:55:26.174Z,8.90
2019-05-06T12:57:57.569Z,9.73
2019-05-06T13:00:30.744Z,11.40
2019-05-06T13:03:02.469Z,6.83
2019-05-06T13:05:33.951Z,7.70
2019-05-06T13:08:06.630Z,7.27
2019-05-06T13:10:42.108Z,7.00
2019-05-06T13:13:13.648Z,6.17
2019-05-06T13:15:45.014Z,6.87
2019-05-06T13:18:16.414Z,7.57
2019-05-06T13:20:51.144Z,8.73
2019-05-06T13:23:26.292Z,7.40
2019-05-06T13:25:57.739Z,6.30
2019-05-06T13:28:33.226Z,8.60
2019-05-06T13:31:16.448Z,9.33
2019-05-06T13:33:48.794Z,7.50
2019-05-06T13:36:22.566Z,8.53
2019-05-06T13:39:08.563Z,6.57
2019-05-06T13:41:26.305Z,6.93
2019-05-06T13:44:07.411Z,8.03
2019-05-06T13:46:45.139Z,8.77
2019-05-06T13:49:38.413Z,8.50
2019-05-06T13:52:12.680Z,8.23
2019-05-06T13:54:44.264Z,9.13
2019-05-06T13:57:15.717Z,6.57
2019-05-06T13:59:47.103Z,10.43
2019-05-06T14:02:37.307Z,10.33
2019-05-06T14:05:08.947Z,7.83
2019-05-06T14:07:43.054Z,8.90
2019-05-06T14:10:13.909Z,8.47
2019-05-06T14:12:45.269Z,6.37
2019-05-06T14:15:17.441Z,4.70
2019-05-06T14:17:48.829Z,4.17
2019-05-06T14:20:21.991Z,6.93
2019-05-06T14:22:53.498Z,6.57
2019-05-06T14:25:43.429Z,4.77
2019-05-06T14:28:33.893Z,4.57
2019-05-06T14:31:10.461Z,3.97
2019-05-06T14:33:42.826Z,5.83
2019-05-06T14:36:14.315Z,5.73
2019-05-06T14:38:46.651Z,6.83
2019-05-06T14:41:26.904Z,8.30
2019-05-06T14:43:55.981Z,8.20
2019-05-06T14:46:33.067Z,6.13
2019-05-06T14:49:04.399Z,6.53
2019-05-06T14:51:35.849Z,4.53
2019-05-06T14:54:07.306Z,6.13
2019-05-06T14:56:44.568Z,6.50
2019-05-06T14:59:16.009Z,6.37
2019-05-06T15:01:47.429Z,6.73
2019-05-06T15:04:18.859Z,5.77
2019-05-06T15:06:50.211Z,5.90
2019-05-06T15:09:22.605Z,5.90
2019-05-06T15:11:54.245Z,6.13
2019-05-06T15:14:25.658Z,9.37
2019-05-06T15:16:57.081Z,8.03
2019-05-06T15:19:28.529Z,5.63
2019-05-06T15:22:02.114Z,6.30
2019-05-06T15:24:33.075Z,7.60
2019-05-06T15:27:04.446Z,8.23
2019-05-06T15:29:35.896Z,6.70
2019-05-06T15:32:18.775Z,6.43
2019-05-06T15:35:09.171Z,7.80
2019-05-06T15:37:48.362Z,6.33
2019-05-06T15:40:32.109Z,5.47
2019-05-06T15:42:54.774Z,5.63
2019-05-06T15:45:26.171Z,6.50
2019-05-06T15:47:57.634Z,6.47
2019-05-06T15:50:29.084Z,7.60
2019-05-06T15:53:02.005Z,8.53
2019-05-06T15:55:33.560Z,7.23
2019-05-06T15:58:05.059Z,6.10
2019-05-06T16:00:36.416Z,7.90
2019-05-06T16:03:08.768Z,7.17
2019-05-06T16:05:40.210Z,7.47
2019-05-06T16:08:11.630Z,8.13
2019-05-06T16:10:52.007Z,6.53
2019-05-06T16:13:16.340Z,6.23
2019-05-06T16:15:47.737Z,5.97
2019-05-06T16:18:19.222Z,6.97
2019-05-06T16:20:50.614Z,5.77
2019-05-06T16:23:37.827Z,6.57
2019-05-06T16:26:09.214Z,6.13
2019-05-06T16:28:41.702Z,6.57
2019-05-06T16:31:13.790Z,5.73
2019-05-06T16:33:45.257Z,4.97
2019-05-06T16:36:16.851Z,7.00
2019-05-06T16:38:48.284Z,7.33
2019-05-06T16:41:19.649Z,5.17
2019-05-06T16:43:52.333Z,4.83
2019-05-06T16:46:23.828Z,6.87
2019-05-06T16:48:55.260Z,4.00
2019-05-06T16:51:26.647Z,5.97
2019-05-06T16:53:58.110Z,5.60
2019-05-06T16:56:44.712Z,4.97
2019-05-06T16:59:17.123Z,5.53
2019-05-06T17:01:49.273Z,7.07
2019-05-06T17:04:28.997Z,6.47
2019-05-06T17:07:00.348Z,5.97
2019-05-06T17:09:32.749Z,7.20
2019-05-06T17:12:04.825Z,6.03
2019-05-06T17:14:36.241Z,4.90
2019-05-06T17:17:07.608Z,9.70
2019-05-06T17:19:39.082Z,6.30
2019-05-06T17:22:12.374Z,6.97
2019-05-06T17:24:43.705Z,4.50
2019-05-06T17:27:15.088Z,4.27
2019-05-06T17:29:53.886Z,5.83
2019-05-06T17:32:52.495Z,6.10
2019-05-06T17:35:23.721Z,5.33
2019-05-06T17:38:08.196Z,7.97
2019-05-06T17:40:39.629Z,7.27
2019-05-06T17:43:13.025Z,6.57
2019-05-06T17:46:02.269Z,8.50
2019-05-06T17:48:52.866Z,7.23
2019-05-06T17:51:33.811Z,5.90
2019-05-06T17:54:05.598Z,8.33
2019-05-06T17:56:36.997Z,5.97
2019-05-06T17:59:08.457Z,4.90
2019-05-06T18:01:46.322Z,5.63
2019-05-06T18:04:17.842Z,4.80
2019-05-06T18:06:49.211Z,6.67
2019-05-06T18:09:22.348Z,6.23
2019-05-06T18:11:59.005Z,3.27
2019-05-06T18:14:27.990Z,6.33
2019-05-06T18:16:59.410Z,4.10
2019-05-06T18:19:33.810Z,4.07
2019-05-06T18:22:05.460Z,5.60
2019-05-06T18:24:36.869Z,6.13
2019-05-06T18:27:08.349Z,6.00
2019-05-06T18:29:42.348Z,4.10
2019-05-06T18:32:13.835Z,7.57
2019-05-06T18:34:45.205Z,7.03
2019-05-06T18:37:16.623Z,5.90
2019-05-06T18:39:47.999Z,5.90
2019-05-06T18:42:21.413Z,6.43
2019-05-06T18:44:52.492Z,9.70
2019-05-06T18:47:23.867Z,5.20
2019-05-06T18:49:55.227Z,6.10
2019-05-06T18:52:27.222Z,7.13
2019-05-06T18:54:58.590Z,3.83
2019-05-06T18:57:32.294Z,6.20
2019-05-06T19:00:03.285Z,4.83
2019-05-06T19:02:36.315Z,5.53
2019-05-06T19:05:17.200Z,5.47
2019-05-06T19:07:48.640Z,5.73
2019-05-06T19:10:28.639Z,5.77
2019-05-06T19:13:01.996Z,4.50
2019-05-06T19:15:36.058Z,4.20
2019-05-06T19:18:07.421Z,5.60
2019-05-06T19:20:38.811Z,8.17
2019-05-06T19:23:10.274Z,4.60
2019-05-06T19:25:42.833Z,4.70
2019-05-06T19:28:17.977Z,6.23
2019-05-06T19:30:49.403Z,4.47
2019-05-06T19:33:20.724Z,8.60
2019-05-06T19:35:52.394Z,8.40
2019-05-06T19:38:24.479Z,6.37
2019-05-06T19:40:55.998Z,5.17
2019-05-06T19:43:27.325Z,5.53
2019-05-06T19:45:58.797Z,5.23
2019-05-06T19:48:32.631Z,6.00
2019-05-06T19:51:03.298Z,7.23
2019-05-06T19:53:35.044Z,6.50
2019-05-06T19:56:06.416Z,4.63
2019-05-06T19:58:37.752Z,6.87
2019-05-06T20:01:09.133Z,6.63
2019-05-06T20:03:40.655Z,6.10
2019-05-06T20:06:35.759Z,5.53
2019-05-06T20:09:33.104Z,5.43
2019-05-06T20:12:07.534Z,5.63
2019-05-06T20:14:38.965Z,6.80
2019-05-06T20:17:10.368Z,5.73
2019-05-06T20:19:42.605Z,6.53
2019-05-06T20:22:14.055Z,7.93
2019-05-06T20:24:45.372Z,7.33
2019-05-06T20:27:16.728Z,7.13
2019-05-06T20:29:48.105Z,6.83
2019-05-06T20:32:19.501Z,5.87
2019-05-06T20:34:50.826Z,5.30
2019-05-06T20:37:22.339Z,9.53
2019-05-06T20:39:53.623Z,9.13
2019-05-06T20:42:25.001Z,10.73
2019-05-06T20:44:56.360Z,6.20
2019-05-06T20:47:27.707Z,7.40
2019-05-06T20:49:59.142Z,4.30
2019-05-06T20:52:33.024Z,6.23
2019-05-06T20:55:12.471Z,10.37
2019-05-06T20:57:38.311Z,8.13
2019-05-06T21:00:10.052Z,10.37
2019-05-06T21:02:42.580Z,9.70
2019-05-06T21:05:15.537Z,10.43
2019-05-06T21:07:46.913Z,8.67
2019-05-06T21:10:18.266Z,9.30
2019-05-06T21:12:49.617Z,8.43
2019-05-06T21:15:24.408Z,10.83
2019-05-06T21:17:55.747Z,12.40
2019-05-06T21:20:27.127Z,9.50
2019-05-06T21:22:58.444Z,11.83
2019-05-06T21:25:32.577Z,12.17
2019-05-06T21:28:03.889Z,10.07
2019-05-06T21:30:35.450Z,7.40
2019-05-06T21:33:06.741Z,7.60
2019-05-06T21:35:38.079Z,11.43
2019-05-06T21:38:09.441Z,8.97
2019-05-06T21:40:43.108Z,8.93
2019-05-06T21:43:13.846Z,9.00
2019-05-06T21:45:45.166Z,10.13
2019-05-06T21:48:16.529Z,9.03
2019-05-06T21:50:47.885Z,8.50
2019-05-06T21:53:19.264Z,8.17
2019-05-06T21:55:52.488Z,8.73
2019-05-06T21:58:23.756Z,8.57
2019-05-06T22:01:03.466Z,6.43
2019-05-06T22:03:36.532Z,8.97
2019-05-06T22:06:07.914Z,12.73
2019-05-06T22:08:42.338Z,9.20
2019-05-06T22:11:13.408Z,8.47
2019-05-06T22:13:57.959Z,9.17
2019-05-06T22:16:19.973Z,11.30
2019-05-06T22:18:53.126Z,10.70
2019-05-06T22:21:25.299Z,8.40
2019-05-06T22:24:04.139Z,8.50
2019-05-06T22:26:34.275Z,12.83
2019-05-06T22:29:06.161Z,8.93
2019-05-06T22:31:37.531Z,8.43
2019-05-06T22:34:08.875Z,10.13
2019-05-06T22:36:40.225Z,7.40
2019-05-06T22:39:12.133Z,8.93
2019-05-06T22:41:44.152Z,9.20
2019-05-06T22:44:17.120Z,11.17
2019-05-06T22:46:48.663Z,15.00
2019-05-06T22:49:22.464Z,15.33
2019-05-06T22:51:53.239Z,9.33
2019-05-06T22:54:24.683Z,8.30
2019-05-06T22:56:57.040Z,9.93
2019-05-06T22:59:28.745Z,13.93
2019-05-06T23:02:32.137Z,11.97
2019-05-06T23:05:04.560Z,11.37
2019-05-06T23:07:35.999Z,12.17
2019-05-06T23:10:07.947Z,11.00
2019-05-06T23:12:39.312Z,7.67
2019-05-06T23:15:12.101Z,11.03
2019-05-06T23:17:43.526Z,8.90
2019-05-06T23:20:14.954Z,8.30
2019-05-06T23:22:46.311Z,7.93
2019-05-06T23:25:17.735Z,10.30
2019-05-06T23:27:49.155Z,9.53
2019-05-06T23:30:20.483Z,7.40
2019-05-06T23:32:52.980Z,10.50
2019-05-06T23:35:24.490Z,7.37
2019-05-06T23:38:49.905Z,8.30
2019-05-06T23:42:15.382Z,13.13
2019-05-06T23:45:40.651Z,12.00
2019-05-06T23:49:05.983Z,8.43
2019-05-06T23:52:31.987Z,9.23
2019-05-06T23:55:57.275Z,10.07
2019-05-06T23:58:27.276Z,7.67
